createdAt,value
2023-04-24T00:04:56.470Z,14.37
2023-04-24T00:09:59.528Z,17.50
2023-04-24T00:15:02.318Z,15.33
2023-04-24T00:20:07.957Z,14.60
2023-04-24T00:25:10.749Z,14.03
2023-04-24T00:30:13.469Z,13.27
2023-04-24T00:35:16.030Z,14.07
2023-04-24T00:40:19.171Z,15.40
2023-04-24T00:45:22.028Z,11.50
2023-04-24T00:50:25.657Z,15.27
2023-04-24T00:55:28.349Z,13.37
2023-04-24T01:00:32.039Z,14.27
2023-04-24T01:05:35.239Z,14.37
2023-04-24T01:10:38.936Z,14.73
2023-04-24T01:15:41.530Z,13.70
2023-04-24T01:20:46.176Z,14.37
2023-04-24T01:25:49.921Z,15.13
2023-04-24T01:30:52.822Z,14.10
2023-04-24T01:35:58.908Z,14.97
2023-04-24T01:41:01.945Z,12.80
2023-04-24T01:46:04.722Z,11.87
2023-04-24T01:51:07.175Z,13.07
2023-04-24T01:56:10.259Z,14.37
2023-04-24T02:01:24.476Z,10.87
2023-04-24T02:06:26.888Z,8.80
2023-04-24T02:11:29.399Z,6.13
2023-04-24T02:16:33.690Z,12.13
2023-04-24T02:21:36.320Z,12.90
2023-04-24T02:26:38.760Z,12.40
2023-04-24T02:31:41.288Z,11.83
2023-04-24T02:36:43.875Z,12.87
2023-04-24T02:41:46.470Z,12.73
2023-04-24T02:46:49.011Z,12.60
2023-04-24T02:51:52.873Z,13.23
2023-04-24T02:56:56.127Z,13.60
2023-04-24T03:01:58.709Z,15.00
2023-04-24T03:07:02.228Z,11.47
2023-04-24T03:12:04.823Z,13.20
2023-04-24T03:17:07.266Z,12.77
2023-04-24T03:22:10.351Z,9.40
2023-04-24T03:27:14.150Z,12.10
2023-04-24T03:32:36.427Z,11.53
2023-04-24T03:37:39.747Z,12.60
2023-04-24T03:43:05.344Z,9.20
2023-04-24T03:48:08.813Z,10.60
2023-04-24T03:53:11.626Z,12.77
2023-04-24T03:58:16.922Z,13.87
2023-04-24T04:03:20.018Z,12.47
2023-04-24T04:08:23.063Z,8.17
2023-04-24T04:13:25.660Z,6.97
2023-04-24T04:18:28.191Z,9.60
2023-04-24T04:23:31.109Z,11.77
2023-04-24T04:28:54.189Z,11.27
2023-04-24T04:33:56.988Z,9.77
2023-04-24T04:39:00.444Z,10.50
2023-04-24T04:44:32.142Z,9.27
2023-04-24T04:49:36.291Z,11.33
2023-04-24T04:54:41.562Z,10.63
2023-04-24T04:59:44.891Z,9.33
2023-04-24T05:04:55.582Z,10.37
2023-04-24T05:09:58.556Z,11.00
2023-04-24T05:15:01.239Z,11.27
2023-04-24T05:20:06.511Z,9.30
2023-04-24T05:25:10.027Z,8.93
2023-04-24T05:30:17.823Z,8.23
2023-04-24T05:35:20.486Z,10.03
2023-04-24T05:40:23.214Z,9.80
2023-04-24T05:45:26.234Z,9.40
2023-04-24T05:50:28.754Z,9.20
2023-04-24T05:55:32.708Z,10.70
2023-04-24T06:00:36.586Z,7.53
2023-04-24T06:05:43.657Z,7.77
2023-04-24T06:10:46.948Z,13.53
2023-04-24T06:15:51.858Z,11.40
2023-04-24T06:21:10.688Z,13.13
2023-04-24T06:26:13.398Z,9.43
2023-04-24T06:31:16.094Z,8.30
2023-04-24T06:36:18.801Z,9.53
2023-04-24T06:41:21.481Z,7.67
2023-04-24T06:46:27.103Z,10.00
2023-04-24T06:51:29.971Z,10.10
2023-04-24T06:56:32.653Z,11.17
2023-04-24T07:01:35.589Z,8.53
2023-04-24T07:06:38.811Z,12.40
2023-04-24T07:11:41.789Z,12.00
2023-04-24T07:16:44.814Z,11.00
2023-04-24T07:21:47.627Z,12.30
2023-04-24T07:31:55.360Z,10.37
2023-04-24T07:36:58.234Z,13.83
2023-04-24T07:42:00.907Z,14.20
2023-04-24T07:47:03.439Z,12.07
2023-04-24T07:52:05.929Z,9.83
2023-04-24T07:57:09.345Z,12.83
2023-04-24T08:02:12.080Z,8.63
2023-04-24T08:07:14.669Z,5.23
2023-04-24T08:12:17.079Z,8.43
2023-04-24T08:17:19.546Z,4.37
2023-04-24T08:22:22.063Z,8.93
2023-04-24T08:27:25.018Z,8.93
2023-04-24T08:32:30.658Z,6.33
2023-04-24T08:37:33.922Z,8.57
2023-04-24T08:42:38.521Z,9.03
2023-04-24T08:47:42.445Z,8.40
2023-04-24T08:52:45.128Z,8.37
2023-04-24T08:57:52.791Z,7.77
2023-04-24T09:02:57.094Z,8.30
2023-04-24T09:08:08.833Z,8.83
2023-04-24T09:13:12.305Z,6.50
2023-04-24T09:18:15.062Z,6.83
2023-04-24T09:23:19.448Z,9.60
2023-04-24T09:28:33.845Z,8.47
2023-04-24T09:33:37.408Z,6.83
2023-04-24T09:38:40.362Z,7.57
2023-04-24T09:43:42.936Z,7.70
2023-04-24T09:48:45.494Z,7.43
2023-04-24T09:53:48.397Z,8.10
2023-04-24T09:59:06.118Z,8.00
2023-04-24T10:04:23.911Z,8.23
2023-04-24T10:09:27.882Z,8.47
2023-04-24T10:14:31.402Z,11.13
2023-04-24T10:19:34.825Z,11.03
2023-04-24T10:24:39.432Z,9.23
2023-04-24T10:29:45.034Z,7.80
2023-04-24T10:34:47.572Z,7.47
2023-04-24T10:39:52.108Z,9.07
2023-04-24T10:44:55.400Z,7.00
2023-04-24T10:50:01.020Z,5.00
2023-04-24T10:55:03.556Z,8.90
2023-04-24T11:00:21.888Z,7.60
2023-04-24T11:05:51.813Z,6.90
2023-04-24T11:11:00.981Z,5.30
2023-04-24T11:16:16.704Z,7.17
2023-04-24T11:21:19.936Z,7.00
2023-04-24T11:26:33.467Z,8.63
2023-04-24T11:31:40.891Z,7.37
2023-04-24T11:36:49.778Z,8.10
2023-04-24T11:41:52.960Z,5.50
2023-04-24T11:46:57.606Z,4.37
2023-04-24T11:52:03.886Z,5.57
2023-04-24T11:57:07.682Z,4.87
2023-04-24T12:02:10.151Z,3.67
2023-04-24T12:07:12.610Z,4.30
2023-04-24T12:12:17.088Z,3.40
2023-04-24T12:17:35.019Z,4.00
2023-04-24T12:22:55.849Z,3.83
2023-04-24T12:28:04.282Z,4.10
2023-04-24T12:33:07.000Z,4.47
2023-04-24T12:38:11.439Z,4.27
2023-04-24T12:43:20.276Z,5.53
2023-04-24T12:48:23.564Z,5.10
2023-04-24T12:53:27.774Z,5.57
2023-04-24T12:58:30.276Z,6.33
2023-04-24T13:03:32.807Z,5.93
2023-04-24T13:08:35.279Z,5.40
2023-04-24T13:13:37.828Z,5.10
2023-04-24T13:18:40.422Z,5.80
2023-04-24T13:23:43.588Z,4.57
2023-04-24T13:28:46.400Z,4.37
2023-04-24T13:33:49.256Z,4.17
2023-04-24T13:38:51.954Z,4.67
2023-04-24T13:43:54.432Z,3.93
2023-04-24T13:48:57.905Z,3.60
2023-04-24T13:54:01.087Z,2.63
2023-04-24T13:59:03.728Z,3.23
2023-04-24T14:04:06.199Z,2.70
2023-04-24T14:09:08.994Z,2.30
2023-04-24T14:14:12.538Z,2.17
2023-04-24T14:19:15.055Z,3.10
2023-04-24T14:24:18.150Z,2.83
2023-04-24T14:29:20.954Z,2.03
2023-04-24T14:34:23.358Z,2.80
2023-04-24T14:39:25.860Z,2.50
2023-04-24T14:44:28.340Z,2.30
2023-04-24T14:49:30.888Z,2.50
2023-04-24T14:54:33.355Z,3.10
2023-04-24T14:59:36.034Z,2.30
2023-04-24T15:04:38.557Z,2.77
2023-04-24T15:09:41.528Z,2.80
2023-04-24T15:14:44.052Z,2.57
2023-04-24T15:19:46.582Z,2.90
2023-04-24T15:24:49.052Z,3.00
2023-04-24T15:29:51.515Z,2.53
2023-04-24T15:35:04.878Z,2.47
2023-04-24T15:40:14.208Z,2.33
2023-04-24T15:45:16.807Z,2.80
2023-04-24T15:50:21.742Z,2.40
2023-04-24T15:55:24.186Z,2.92
2023-04-24T16:00:28.910Z,2.45
2023-04-24T16:05:31.543Z,2.78
2023-04-24T16:10:34.168Z,2.60
2023-04-24T16:15:36.826Z,3.08
2023-04-24T16:20:39.388Z,4.03
2023-04-24T16:25:42.197Z,3.00
2023-04-24T16:30:44.729Z,2.20
2023-04-24T16:35:47.351Z,3.00
2023-04-24T16:40:49.940Z,6.20
2023-04-24T16:45:52.635Z,5.17
2023-04-24T16:50:55.069Z,5.75
2023-04-24T16:55:57.814Z,6.57
2023-04-24T17:01:00.350Z,6.10
2023-04-24T17:06:03.253Z,6.10
2023-04-24T17:11:05.902Z,12.67
2023-04-24T17:16:08.582Z,9.80
2023-04-24T17:21:11.206Z,7.83
2023-04-24T17:26:13.795Z,8.30
2023-04-24T17:31:16.321Z,5.10
2023-04-24T17:36:18.906Z,5.57
2023-04-24T17:41:21.794Z,6.00
2023-04-24T17:46:24.376Z,5.05
2023-04-24T17:51:27.793Z,5.07
2023-04-24T17:56:30.457Z,4.57
2023-04-24T18:01:33.093Z,4.13
2023-04-24T18:06:35.775Z,5.30
2023-04-24T18:11:38.388Z,4.03
2023-04-24T18:16:40.934Z,4.43
2023-04-24T18:21:43.466Z,4.23
2023-04-24T18:26:46.061Z,3.57
2023-04-24T18:31:49.325Z,5.07
2023-04-24T18:36:52.812Z,4.03
2023-04-24T18:41:55.435Z,4.40
2023-04-24T18:46:58.162Z,4.23
2023-04-24T18:52:01.828Z,5.10
2023-04-24T18:57:04.369Z,6.70
2023-04-24T19:02:07.634Z,7.50
2023-04-24T19:07:10.123Z,6.27
2023-04-24T19:12:12.630Z,11.90
2023-04-24T19:17:18.383Z,9.50
2023-04-24T19:22:21.110Z,6.20
2023-04-24T19:27:23.647Z,5.17
2023-04-24T19:32:26.185Z,5.53
2023-04-24T19:37:28.827Z,7.73
2023-04-24T19:42:42.597Z,10.17
2023-04-24T19:47:49.186Z,12.30
2023-04-24T19:52:51.785Z,11.80
2023-04-24T19:57:54.256Z,10.60
2023-04-24T20:02:56.817Z,8.67
2023-04-24T20:07:59.471Z,8.93
2023-04-24T20:13:01.919Z,8.67
2023-04-24T20:18:04.361Z,9.50
2023-04-24T20:23:07.175Z,10.07
2023-04-24T20:28:09.624Z,13.27
2023-04-24T20:33:12.118Z,21.30
2023-04-24T20:38:15.591Z,11.67
2023-04-24T20:43:17.980Z,10.40
2023-04-24T20:48:20.483Z,9.97
2023-04-24T20:53:22.979Z,9.33
2023-04-24T20:58:25.620Z,8.23
2023-04-24T21:03:28.163Z,6.47
2023-04-24T21:08:30.807Z,6.77
2023-04-24T21:13:33.328Z,6.40
2023-04-24T21:18:41.020Z,7.07
2023-04-24T21:23:43.679Z,4.97
2023-04-24T21:28:46.432Z,6.10
2023-04-24T21:33:49.141Z,5.30
2023-04-24T21:38:51.778Z,4.10
2023-04-24T21:43:54.367Z,5.43
2023-04-24T21:48:57.145Z,4.40
2023-04-24T21:53:59.592Z,4.40
2023-04-24T21:59:02.420Z,5.13
2023-04-24T22:04:05.517Z,3.97
2023-04-24T22:09:08.356Z,1.92
2023-04-24T22:14:11.160Z,3.40
2023-04-24T22:19:14.542Z,2.37
2023-04-24T22:24:18.600Z,4.60
2023-04-24T22:29:21.856Z,3.40
2023-04-24T22:34:24.302Z,3.23
2023-04-24T22:39:26.724Z,3.70
2023-04-24T22:44:29.167Z,3.45
2023-04-24T22:49:31.926Z,3.15
2023-04-24T22:54:34.970Z,2.70
2023-04-24T22:59:38.854Z,3.60
2023-04-24T23:04:41.346Z,3.00
2023-04-24T23:09:43.790Z,2.95
2023-04-24T23:14:46.232Z,2.90
2023-04-24T23:19:48.887Z,3.53
2023-04-24T23:24:51.553Z,2.70
2023-04-24T23:29:54.042Z,3.17
2023-04-24T23:34:56.619Z,3.00
2023-04-24T23:39:59.184Z,1.67
2023-04-24T23:45:01.943Z,2.95
2023-04-24T23:50:04.782Z,2.13
2023-04-24T23:55:09.323Z,2.85
